Aviation Digital Data Service (ADDS)

Output produced by METARs form (1126 UTC 19 January 2019)
found at http://www.aviationweather.gov/metar/data/
 
METAR text: WBGR 191100Z 03007KT 350V070 9999 FEW016 SCT150 BKN300 27/24 Q1007
Conditions at: WBGR (MIRI/KALIMANTAN , MY) observed 1100 UTC 19 January 2019
Temperature: 27.0°C (81°F)
Dewpoint: 24.0°C (75°F) [RH = 84%]
Pressure (altimeter): 29.73 inches Hg (1007.0 mb)
Winds: from the NNE (30 degrees) at 8 MPH (7 knots; 3.6 m/s)
Visibility: 6 or more miles (10+ km)
Ceiling: 30000 feet AGL
Clouds: few clouds at 1600 feet AGL
scattered clouds at 15000 feet AGL
broken clouds at 30000 feet AGL
Weather: no significant weather observed at this time

METAR text: WBGR 191000Z 03008KT 350V070 9999 SCT016 SCT150 BKN300 28/24 Q1006
Conditions at: WBGR (MIRI/KALIMANTAN , MY) observed 1000 UTC 19 January 2019
Temperature: 28.0°C (82°F)
Dewpoint: 24.0°C (75°F) [RH = 79%]
Pressure (altimeter): 29.70 inches Hg (1006.0 mb)
Winds: from the NNE (30 degrees) at 9 MPH (8 knots; 4.1 m/s)
Visibility: 6 or more miles (10+ km)
Ceiling: 30000 feet AGL
Clouds: scattered clouds at 1600 feet AGL
scattered clouds at 15000 feet AGL
broken clouds at 30000 feet AGL
Weather: no significant weather observed at this time

METAR text: WBGR 190900Z 03009KT 320V070 9999 SCT016 SCT150 BKN300 30/25 Q1005
Conditions at: WBGR (MIRI/KALIMANTAN , MY) observed 0900 UTC 19 January 2019
Temperature: 30.0°C (86°F)
Dewpoint: 25.0°C (77°F) [RH = 75%]
Pressure (altimeter): 29.68 inches Hg (1005.0 mb)
Winds: from the NNE (30 degrees) at 10 MPH (9 knots; 4.6 m/s)
Visibility: 6 or more miles (10+ km)
Ceiling: 30000 feet AGL
Clouds: scattered clouds at 1600 feet AGL
scattered clouds at 15000 feet AGL
broken clouds at 30000 feet AGL
Weather: no significant weather observed at this time

METAR text: WBGR 190800Z 03008KT 340V080 9999 SCT016 SCT150 BKN300 31/26 Q1005
Conditions at: WBGR (MIRI/KALIMANTAN , MY) observed 0800 UTC 19 January 2019
Temperature: 31.0°C (88°F)
Dewpoint: 26.0°C (79°F) [RH = 75%]
Pressure (altimeter): 29.68 inches Hg (1005.0 mb)
Winds: from the NNE (30 degrees) at 9 MPH (8 knots; 4.1 m/s)
Visibility: 6 or more miles (10+ km)
Ceiling: 30000 feet AGL
Clouds: scattered clouds at 1600 feet AGL
scattered clouds at 15000 feet AGL
broken clouds at 30000 feet AGL
Weather: no significant weather observed at this time

METAR text: WBGR 190700Z 02007KT 330V100 9999 FEW015CB SCT016 BKN300 32/26 Q1006
Conditions at: WBGR (MIRI/KALIMANTAN , MY) observed 0700 UTC 19 January 2019
Temperature: 32.0°C (90°F)
Dewpoint: 26.0°C (79°F) [RH = 71%]
Pressure (altimeter): 29.70 inches Hg (1006.0 mb)
Winds: from the NNE (20 degrees) at 8 MPH (7 knots; 3.6 m/s)
Visibility: 6 or more miles (10+ km)
Ceiling: 30000 feet AGL
Clouds: few clouds at 1500 feet AGL
scattered clouds at 1600 feet AGL
broken clouds at 30000 feet AGL
Weather: no significant weather observed at this time

METAR text: WBGR 190600Z 35008KT 280V040 9999 SCT016 SCT150 BKN300 31/26 Q1006
Conditions at: WBGR (MIRI/KALIMANTAN , MY) observed 0600 UTC 19 January 2019
Temperature: 31.0°C (88°F)
Dewpoint: 26.0°C (79°F) [RH = 75%]
Pressure (altimeter): 29.70 inches Hg (1006.0 mb)
Winds: from the N (350 degrees) at 9 MPH (8 knots; 4.1 m/s)
Visibility: 6 or more miles (10+ km)
Ceiling: 30000 feet AGL
Clouds: scattered clouds at 1600 feet AGL
scattered clouds at 15000 feet AGL
broken clouds at 30000 feet AGL
Weather: no significant weather observed at this time

METAR text: WBGR 190500Z 06005KT 330V120 9999 SCT016 SCT150 BKN300 32/24 Q1007
Conditions at: WBGR (MIRI/KALIMANTAN , MY) observed 0500 UTC 19 January 2019
Temperature: 32.0°C (90°F)
Dewpoint: 24.0°C (75°F) [RH = 63%]
Pressure (altimeter): 29.73 inches Hg (1007.0 mb)
Winds: from the ENE (60 degrees) at 6 MPH (5 knots; 2.6 m/s)
Visibility: 6 or more miles (10+ km)
Ceiling: 30000 feet AGL
Clouds: scattered clouds at 1600 feet AGL
scattered clouds at 15000 feet AGL
broken clouds at 30000 feet AGL
Weather: no significant weather observed at this time

METAR text: WBGR 190400Z 04006KT 330V120 9999 SCT016 SCT150 BKN300 32/24 Q1008
Conditions at: WBGR (MIRI/KALIMANTAN , MY) observed 0400 UTC 19 January 2019
Temperature: 32.0°C (90°F)
Dewpoint: 24.0°C (75°F) [RH = 63%]
Pressure (altimeter): 29.76 inches Hg (1008.0 mb)
Winds: from the NE (40 degrees) at 7 MPH (6 knots; 3.1 m/s)
Visibility: 6 or more miles (10+ km)
Ceiling: 30000 feet AGL
Clouds: scattered clouds at 1600 feet AGL
scattered clouds at 15000 feet AGL
broken clouds at 30000 feet AGL
Weather: no significant weather observed at this time

METAR text: WBGR 190300Z 12005KT 080V190 9999 SCT016 SCT150 BKN300 32/25 Q1009
Conditions at: WBGR (MIRI/KALIMANTAN , MY) observed 0300 UTC 19 January 2019
Temperature: 32.0°C (90°F)
Dewpoint: 25.0°C (77°F) [RH = 67%]
Pressure (altimeter): 29.79 inches Hg (1009.0 mb)
Winds: from the ESE (120 degrees) at 6 MPH (5 knots; 2.6 m/s)
Visibility: 6 or more miles (10+ km)
Ceiling: 30000 feet AGL
Clouds: scattered clouds at 1600 feet AGL
scattered clouds at 15000 feet AGL
broken clouds at 30000 feet AGL
Weather: no significant weather observed at this time

METAR text: WBGR 190200Z 07007KT 020V120 9999 SCT014 BKN300 30/25 Q1009
Conditions at: WBGR (MIRI/KALIMANTAN , MY) observed 0200 UTC 19 January 2019
Temperature: 30.0°C (86°F)
Dewpoint: 25.0°C (77°F) [RH = 75%]
Pressure (altimeter): 29.79 inches Hg (1009.0 mb)
Winds: from the ENE (70 degrees) at 8 MPH (7 knots; 3.6 m/s)
Visibility: 6 or more miles (10+ km)
Ceiling: 30000 feet AGL
Clouds: scattered clouds at 1400 feet AGL
broken clouds at 30000 feet AGL
Weather: no significant weather observed at this time

METAR text: WBGR 190100Z 07007KT 030V110 9999 SCT014 BKN300 29/26 Q1009
Conditions at: WBGR (MIRI/KALIMANTAN , MY) observed 0100 UTC 19 January 2019
Temperature: 29.0°C (84°F)
Dewpoint: 26.0°C (79°F) [RH = 84%]
Pressure (altimeter): 29.79 inches Hg (1009.0 mb)
Winds: from the ENE (70 degrees) at 8 MPH (7 knots; 3.6 m/s)
Visibility: 6 or more miles (10+ km)
Ceiling: 30000 feet AGL
Clouds: scattered clouds at 1400 feet AGL
broken clouds at 30000 feet AGL
Weather: no significant weather observed at this time

METAR text: WBGR 190000Z 10004KT 070V130 9999 FEW008 BKN300 27/25 Q1008
Conditions at: WBGR (MIRI/KALIMANTAN , MY) observed 0000 UTC 19 January 2019
Temperature: 27.0°C (81°F)
Dewpoint: 25.0°C (77°F) [RH = 89%]
Pressure (altimeter): 29.76 inches Hg (1008.0 mb)
Winds: from the E (100 degrees) at 5 MPH (4 knots; 2.1 m/s)
Visibility: 6 or more miles (10+ km)
Ceiling: 30000 feet AGL
Clouds: few clouds at 800 feet AGL
broken clouds at 30000 feet AGL
Weather: no significant weather observed at this time

METAR text: WBGR 182300Z VRB03KT 9999 FEW007 BKN300 24/24 Q1008
Conditions at: WBGR (MIRI/KALIMANTAN , MY) observed 2300 UTC 18 January 2019
Temperature: 24.0°C (75°F)
Dewpoint: 24.0°C (75°F) [RH = 100%]
Pressure (altimeter): 29.76 inches Hg (1008.0 mb)
Winds: variable direction winds at 3 MPH (3 knots; 1.5 m/s)
Visibility: 6 or more miles (10+ km)
Ceiling: 30000 feet AGL
Clouds: few clouds at 700 feet AGL
broken clouds at 30000 feet AGL
Weather: no significant weather observed at this time

METAR text: WBGR 182200Z 00000KT 9999 FEW003 SCT150 BKN300 25/24 Q1007
Conditions at: WBGR (MIRI/KALIMANTAN , MY) observed 2200 UTC 18 January 2019
Temperature: 25.0°C (77°F)
Dewpoint: 24.0°C (75°F) [RH = 94%]
Pressure (altimeter): 29.73 inches Hg (1007.0 mb)
Winds: calm
Visibility: 6 or more miles (10+ km)
Ceiling: 30000 feet AGL
Clouds: few clouds at 300 feet AGL
scattered clouds at 15000 feet AGL
broken clouds at 30000 feet AGL
Weather: no significant weather observed at this time

METAR text: WBGR 182100Z 00000KT 9999 FEW001 SCT150 BKN300 24/24 Q1007
Conditions at: WBGR (MIRI/KALIMANTAN , MY) observed 2100 UTC 18 January 2019
Temperature: 24.0°C (75°F)
Dewpoint: 24.0°C (75°F) [RH = 100%]
Pressure (altimeter): 29.73 inches Hg (1007.0 mb)
Winds: calm
Visibility: 6 or more miles (10+ km)
Ceiling: 30000 feet AGL
Clouds: few clouds at 100 feet AGL
scattered clouds at 15000 feet AGL
broken clouds at 30000 feet AGL
Weather: no significant weather observed at this time

METAR text: WBGR 182000Z VRB02KT 9999 FEW016 SCT150 BKN300 25/24 Q1007
Conditions at: WBGR (MIRI/KALIMANTAN , MY) observed 2000 UTC 18 January 2019
Temperature: 25.0°C (77°F)
Dewpoint: 24.0°C (75°F) [RH = 94%]
Pressure (altimeter): 29.73 inches Hg (1007.0 mb)
Winds: variable direction winds at 2 MPH (2 knots; 1.0 m/s)
Visibility: 6 or more miles (10+ km)
Ceiling: 30000 feet AGL
Clouds: few clouds at 1600 feet AGL
scattered clouds at 15000 feet AGL
broken clouds at 30000 feet AGL
Weather: no significant weather observed at this time

METAR text: WBGR 181900Z VRB02KT 9999 FEW016 SCT150 BKN300 25/25 Q1007
Conditions at: WBGR (MIRI/KALIMANTAN , MY) observed 1900 UTC 18 January 2019
Temperature: 25.0°C (77°F)
Dewpoint: 25.0°C (77°F) [RH = 100%]
Pressure (altimeter): 29.73 inches Hg (1007.0 mb)
Winds: variable direction winds at 2 MPH (2 knots; 1.0 m/s)
Visibility: 6 or more miles (10+ km)
Ceiling: 30000 feet AGL
Clouds: few clouds at 1600 feet AGL
scattered clouds at 15000 feet AGL
broken clouds at 30000 feet AGL
Weather: no significant weather observed at this time

METAR text: WBGR 181800Z 12004KT 080V150 9999 FEW016 SCT150 BKN300 25/25 Q1008
Conditions at: WBGR (MIRI/KALIMANTAN , MY) observed 1800 UTC 18 January 2019
Temperature: 25.0°C (77°F)
Dewpoint: 25.0°C (77°F) [RH = 100%]
Pressure (altimeter): 29.76 inches Hg (1008.0 mb)
Winds: from the ESE (120 degrees) at 5 MPH (4 knots; 2.1 m/s)
Visibility: 6 or more miles (10+ km)
Ceiling: 30000 feet AGL
Clouds: few clouds at 1600 feet AGL
scattered clouds at 15000 feet AGL
broken clouds at 30000 feet AGL
Weather: no significant weather observed at this time

METAR text: WBGR 181700Z 08003KT 9999 FEW016 BKN300 25/25 Q1008
Conditions at: WBGR (MIRI/KALIMANTAN , MY) observed 1700 UTC 18 January 2019
Temperature: 25.0°C (77°F)
Dewpoint: 25.0°C (77°F) [RH = 100%]
Pressure (altimeter): 29.76 inches Hg (1008.0 mb)
Winds: from the E (80 degrees) at 3 MPH (3 knots; 1.5 m/s)
Visibility: 6 or more miles (10+ km)
Ceiling: 30000 feet AGL
Clouds: few clouds at 1600 feet AGL
broken clouds at 30000 feet AGL
Weather: no significant weather observed at this time

METAR text: WBGR 181600Z 09004KT 9999 FEW016 BKN300 25/25 Q1009
Conditions at: WBGR (MIRI/KALIMANTAN , MY) observed 1600 UTC 18 January 2019
Temperature: 25.0°C (77°F)
Dewpoint: 25.0°C (77°F) [RH = 100%]
Pressure (altimeter): 29.79 inches Hg (1009.0 mb)
Winds: from the E (90 degrees) at 5 MPH (4 knots; 2.1 m/s)
Visibility: 6 or more miles (10+ km)
Ceiling: 30000 feet AGL
Clouds: few clouds at 1600 feet AGL
broken clouds at 30000 feet AGL
Weather: no significant weather observed at this time

METAR text: WBGR 181500Z 07007KT 030V100 9999 FEW016 SCT150 BKN300 26/25 Q1009
Conditions at: WBGR (MIRI/KALIMANTAN , MY) observed 1500 UTC 18 January 2019
Temperature: 26.0°C (79°F)
Dewpoint: 25.0°C (77°F) [RH = 94%]
Pressure (altimeter): 29.79 inches Hg (1009.0 mb)
Winds: from the ENE (70 degrees) at 8 MPH (7 knots; 3.6 m/s)
Visibility: 6 or more miles (10+ km)
Ceiling: 30000 feet AGL
Clouds: few clouds at 1600 feet AGL
scattered clouds at 15000 feet AGL
broken clouds at 30000 feet AGL
Weather: no significant weather observed at this time

METAR text: WBGR 181400Z 07006KT 040V100 9999 FEW016 SCT150 BKN300 26/25 Q1009
Conditions at: WBGR (MIRI/KALIMANTAN , MY) observed 1400 UTC 18 January 2019
Temperature: 26.0°C (79°F)
Dewpoint: 25.0°C (77°F) [RH = 94%]
Pressure (altimeter): 29.79 inches Hg (1009.0 mb)
Winds: from the ENE (70 degrees) at 7 MPH (6 knots; 3.1 m/s)
Visibility: 6 or more miles (10+ km)
Ceiling: 30000 feet AGL
Clouds: few clouds at 1600 feet AGL
scattered clouds at 15000 feet AGL
broken clouds at 30000 feet AGL
Weather: no significant weather observed at this time

METAR text: WBGR 181300Z VRB03KT 9999 FEW016 SCT150 BKN300 26/25 Q1009
Conditions at: WBGR (MIRI/KALIMANTAN , MY) observed 1300 UTC 18 January 2019
Temperature: 26.0°C (79°F)
Dewpoint: 25.0°C (77°F) [RH = 94%]
Pressure (altimeter): 29.79 inches Hg (1009.0 mb)
Winds: variable direction winds at 3 MPH (3 knots; 1.5 m/s)
Visibility: 6 or more miles (10+ km)
Ceiling: 30000 feet AGL
Clouds: few clouds at 1600 feet AGL
scattered clouds at 15000 feet AGL
broken clouds at 30000 feet AGL
Weather: no significant weather observed at this time

METAR text: WBGR 181200Z 06006KT 010V100 9999 FEW015CB SCT150 BKN300 27/25 Q1008
Conditions at: WBGR (MIRI/KALIMANTAN , MY) observed 1200 UTC 18 January 2019
Temperature: 27.0°C (81°F)
Dewpoint: 25.0°C (77°F) [RH = 89%]
Pressure (altimeter): 29.76 inches Hg (1008.0 mb)
Winds: from the ENE (60 degrees) at 7 MPH (6 knots; 3.1 m/s)
Visibility: 6 or more miles (10+ km)
Ceiling: 30000 feet AGL
Clouds: few clouds at 1500 feet AGL
scattered clouds at 15000 feet AGL
broken clouds at 30000 feet AGL
Weather: no significant weather observed at this time

METAR text: WBGR 181100Z 04007KT 360V070 9999 FEW015CB SCT016 BKN300 27/25 Q1008
Conditions at: WBGR (MIRI/KALIMANTAN , MY) observed 1100 UTC 18 January 2019
Temperature: 27.0°C (81°F)
Dewpoint: 25.0°C (77°F) [RH = 89%]
Pressure (altimeter): 29.76 inches Hg (1008.0 mb)
Winds: from the NE (40 degrees) at 8 MPH (7 knots; 3.6 m/s)
Visibility: 6 or more miles (10+ km)
Ceiling: 30000 feet AGL
Clouds: few clouds at 1500 feet AGL
scattered clouds at 1600 feet AGL
broken clouds at 30000 feet AGL
Weather: no significant weather observed at this time

METAR text: WBGR 181000Z 04008KT 010V070 9999 FEW015CB SCT016 BKN300 28/24 Q1007
Conditions at: WBGR (MIRI/KALIMANTAN , MY) observed 1000 UTC 18 January 2019
Temperature: 28.0°C (82°F)
Dewpoint: 24.0°C (75°F) [RH = 79%]
Pressure (altimeter): 29.73 inches Hg (1007.0 mb)
Winds: from the NE (40 degrees) at 9 MPH (8 knots; 4.1 m/s)
Visibility: 6 or more miles (10+ km)
Ceiling: 30000 feet AGL
Clouds: few clouds at 1500 feet AGL
scattered clouds at 1600 feet AGL
broken clouds at 30000 feet AGL
Weather: no significant weather observed at this time

METAR text: WBGR 180900Z 03010KT 360V070 9999 FEW015CB SCT016 BKN300 29/24 Q1006
Conditions at: WBGR (MIRI/KALIMANTAN , MY) observed 0900 UTC 18 January 2019
Temperature: 29.0°C (84°F)
Dewpoint: 24.0°C (75°F) [RH = 74%]
Pressure (altimeter): 29.70 inches Hg (1006.0 mb)
Winds: from the NNE (30 degrees) at 12 MPH (10 knots; 5.1 m/s)
Visibility: 6 or more miles (10+ km)
Ceiling: 30000 feet AGL
Clouds: few clouds at 1500 feet AGL
scattered clouds at 1600 feet AGL
broken clouds at 30000 feet AGL
Weather: no significant weather observed at this time

METAR text: WBGR 180800Z 03009KT 340V080 9999 SCT016 SCT150 BKN300 30/25 Q1006
Conditions at: WBGR (MIRI/KALIMANTAN , MY) observed 0800 UTC 18 January 2019
Temperature: 30.0°C (86°F)
Dewpoint: 25.0°C (77°F) [RH = 75%]
Pressure (altimeter): 29.70 inches Hg (1006.0 mb)
Winds: from the NNE (30 degrees) at 10 MPH (9 knots; 4.6 m/s)
Visibility: 6 or more miles (10+ km)
Ceiling: 30000 feet AGL
Clouds: scattered clouds at 1600 feet AGL
scattered clouds at 15000 feet AGL
broken clouds at 30000 feet AGL
Weather: no significant weather observed at this time

METAR text: WBGR 180700Z 03010KT 340V070 9999 SCT016 SCT150 BKN300 31/25 Q1007
Conditions at: WBGR (MIRI/KALIMANTAN , MY) observed 0700 UTC 18 January 2019
Temperature: 31.0°C (88°F)
Dewpoint: 25.0°C (77°F) [RH = 71%]
Pressure (altimeter): 29.73 inches Hg (1007.0 mb)
Winds: from the NNE (30 degrees) at 12 MPH (10 knots; 5.1 m/s)
Visibility: 6 or more miles (10+ km)
Ceiling: 30000 feet AGL
Clouds: scattered clouds at 1600 feet AGL
scattered clouds at 15000 feet AGL
broken clouds at 30000 feet AGL
Weather: no significant weather observed at this time

METAR text: WBGR 180600Z 04011KT 360V090 9999 SCT016 SCT150 BKN300 30/25 Q1007
Conditions at: WBGR (MIRI/KALIMANTAN , MY) observed 0600 UTC 18 January 2019
Temperature: 30.0°C (86°F)
Dewpoint: 25.0°C (77°F) [RH = 75%]
Pressure (altimeter): 29.73 inches Hg (1007.0 mb)
Winds: from the NE (40 degrees) at 13 MPH (11 knots; 5.7 m/s)
Visibility: 6 or more miles (10+ km)
Ceiling: 30000 feet AGL
Clouds: scattered clouds at 1600 feet AGL
scattered clouds at 15000 feet AGL
broken clouds at 30000 feet AGL
Weather: no significant weather observed at this time

METAR text: WBGR 180500Z 04012KT 010V080 9999 SCT016 SCT150 BKN300 31/25 Q1008
Conditions at: WBGR (MIRI/KALIMANTAN , MY) observed 0500 UTC 18 January 2019
Temperature: 31.0°C (88°F)
Dewpoint: 25.0°C (77°F) [RH = 71%]
Pressure (altimeter): 29.76 inches Hg (1008.0 mb)
Winds: from the NE (40 degrees) at 14 MPH (12 knots; 6.2 m/s)
Visibility: 6 or more miles (10+ km)
Ceiling: 30000 feet AGL
Clouds: scattered clouds at 1600 feet AGL
scattered clouds at 15000 feet AGL
broken clouds at 30000 feet AGL
Weather: no significant weather observed at this time

METAR text: WBGR 180400Z 02009KT 340V070 9999 SCT016 SCT150 BKN300 30/25 Q1009
Conditions at: WBGR (MIRI/KALIMANTAN , MY) observed 0400 UTC 18 January 2019
Temperature: 30.0°C (86°F)
Dewpoint: 25.0°C (77°F) [RH = 75%]
Pressure (altimeter): 29.79 inches Hg (1009.0 mb)
Winds: from the NNE (20 degrees) at 10 MPH (9 knots; 4.6 m/s)
Visibility: 6 or more miles (10+ km)
Ceiling: 30000 feet AGL
Clouds: scattered clouds at 1600 feet AGL
scattered clouds at 15000 feet AGL
broken clouds at 30000 feet AGL
Weather: no significant weather observed at this time

METAR text: WBGR 180300Z 07007KT 350V130 9999 SCT016 BKN300 31/25 Q1009
Conditions at: WBGR (MIRI/KALIMANTAN , MY) observed 0300 UTC 18 January 2019
Temperature: 31.0°C (88°F)
Dewpoint: 25.0°C (77°F) [RH = 71%]
Pressure (altimeter): 29.79 inches Hg (1009.0 mb)
Winds: from the ENE (70 degrees) at 8 MPH (7 knots; 3.6 m/s)
Visibility: 6 or more miles (10+ km)
Ceiling: 30000 feet AGL
Clouds: scattered clouds at 1600 feet AGL
broken clouds at 30000 feet AGL
Weather: no significant weather observed at this time

METAR text: WBGR 180200Z 07008KT 020V120 9999 SCT016 SCT150 BKN300 30/25 Q1009
Conditions at: WBGR (MIRI/KALIMANTAN , MY) observed 0200 UTC 18 January 2019
Temperature: 30.0°C (86°F)
Dewpoint: 25.0°C (77°F) [RH = 75%]
Pressure (altimeter): 29.79 inches Hg (1009.0 mb)
Winds: from the ENE (70 degrees) at 9 MPH (8 knots; 4.1 m/s)
Visibility: 6 or more miles (10+ km)
Ceiling: 30000 feet AGL
Clouds: scattered clouds at 1600 feet AGL
scattered clouds at 15000 feet AGL
broken clouds at 30000 feet AGL
Weather: no significant weather observed at this time

METAR text: WBGR 180100Z 07007KT 030V110 9999 SCT016 SCT150 BKN300 28/25 Q1009
Conditions at: WBGR (MIRI/KALIMANTAN , MY) observed 0100 UTC 18 January 2019
Temperature: 28.0°C (82°F)
Dewpoint: 25.0°C (77°F) [RH = 84%]
Pressure (altimeter): 29.79 inches Hg (1009.0 mb)
Winds: from the ENE (70 degrees) at 8 MPH (7 knots; 3.6 m/s)
Visibility: 6 or more miles (10+ km)
Ceiling: 30000 feet AGL
Clouds: scattered clouds at 1600 feet AGL
scattered clouds at 15000 feet AGL
broken clouds at 30000 feet AGL
Weather: no significant weather observed at this time

METAR text: WBGR 180000Z 09004KT 060V130 9999 FEW014 SCT150 BKN300 26/25 Q1008
Conditions at: WBGR (MIRI/KALIMANTAN , MY) observed 0000 UTC 18 January 2019
Temperature: 26.0°C (79°F)
Dewpoint: 25.0°C (77°F) [RH = 94%]
Pressure (altimeter): 29.76 inches Hg (1008.0 mb)
Winds: from the E (90 degrees) at 5 MPH (4 knots; 2.1 m/s)
Visibility: 6 or more miles (10+ km)
Ceiling: 30000 feet AGL
Clouds: few clouds at 1400 feet AGL
scattered clouds at 15000 feet AGL
broken clouds at 30000 feet AGL
Weather: no significant weather observed at this time

Forecast for: WBGR (MIRI/KALIMANTAN , MY)
Text: TAF WBGR 191100Z 1912/2012 VRB03KT 9999 SCT016
Forecast period: 1200 UTC 19 January 2019 to 1200 UTC 20 January 2019
Forecast type: FROM: standard forecast or significant change
Winds: variable direction winds at 3 MPH (3 knots; 1.5 m/s)
Visibility: 6 or more miles 10+ km)
Ceiling: at least 12,000 feet AGL
Clouds: scattered clouds at 1600 feet AGL
Weather: no significant weather forecast for this period
Text: TEMPO 1912/1916 06010KT 4000 TSRA SCT014 FEW015CB
Forecast period: 1200 to 1600 UTC 19 January 2019
Forecast type: TEMPORARY: The following changes expected for less than half the time period
Winds: from the ENE (60 degrees) at 12 MPH (10 knots; 5.1 m/s)
Visibility: 2.49 miles (4.01 km)
Ceiling: at least 12,000 feet AGL
Clouds: scattered clouds at 1400 feet AGL
few clouds at 1500 feet AGL
Weather: TSRA  (rain associated with thunderstorm(s))